Time;durP1;ratioP1;P1;durP2;ratioP2;P2;SDS_P1;SDS_P2;PMS_P1;PMS_P2;Temp;Humidity;BMP_temperature;BMP_pressure;BME280_temperature;BME280_humidity;BME280_pressure;Samples;Min_cycle;Max_cycle;Signal;HPM_P1;HPM_P2
2022/01/02 00:01:01;;;;;;;;;;;;;;;10.38;100.00;101691.38;5039310;28;20046;-72
2022/01/02 00:03:29;;;;;;;;;;;;;;;10.35;100.00;101680.06;5040233;28;19925;-72
2022/01/02 00:05:55;;;;;;;;;;;;;;;10.35;100.00;101684.44;5043679;28;20397;-72
2022/01/02 00:08:20;;;;;;;;;;;;;;;10.37;100.00;101674.72;5023762;28;19935;-71
2022/01/02 00:10:48;;;;;;;;;;;;;;;10.34;100.00;101662.56;5042908;28;19925;-73
2022/01/02 00:13:15;;;;;;;;;;;;;;;10.37;100.00;101658.97;5039166;28;20330;-71
2022/01/02 00:15:40;;;;;;;;;;;;;;;10.33;100.00;101652.09;5043352;28;19955;-72
2022/01/02 00:18:09;;;;;;;;;;;;;;;10.33;100.00;101634.59;5040995;28;19958;-72
2022/01/02 00:20:44;;;;;;;;;;;;;;;10.32;100.00;101626.72;5042498;28;20070;-71
2022/01/02 00:23:17;;;;;;;;;;;;;;;10.29;100.00;101632.94;5038466;28;20039;-71
2022/01/02 00:25:42;;;;;;;;;;;;;;;10.32;100.00;101629.34;5043181;28;20349;-72
2022/01/02 00:28:10;;;;;;;;;;;;;;;10.28;100.00;101633.00;5040332;28;19928;-72
2022/01/02 00:30:36;;;;;;;;;;;;;;;10.27;100.00;101629.50;5046125;28;20615;-73
2022/01/02 00:33:01;;;;;;;;;;;;;;;10.25;100.00;101626.09;5043340;28;20254;-72
2022/01/02 00:35:27;;;;;;;;;;;;;;;10.24;100.00;101627.00;5041468;28;19936;-73
2022/01/02 00:37:52;;;;;;;;;;;;;;;10.23;100.00;101632.28;5045108;28;19921;-73
2022/01/02 00:40:17;;;;;;;;;;;;;;;10.26;100.00;101626.94;5057277;28;19936;-72
2022/01/02 00:42:43;;;;;;;;;;;;;;;10.23;100.00;101627.91;5009972;28;19956;-72
2022/01/02 00:45:23;;;;;;;;;;;;;;;10.23;100.00;101634.91;4999893;28;19925;-73
2022/01/02 00:48:04;;;;;;;;;;;;;;;10.21;100.00;101630.56;5009483;28;19979;-73
2022/01/02 00:50:31;;;;;;;;;;;;;;;10.26;100.00;101627.78;5002278;28;19933;-74
2022/01/02 00:52:57;;;;;;;;;;;;;;;10.31;100.00;101612.75;5007721;28;20020;-72
2022/01/02 00:55:23;;;;;;;;;;;;;;;10.27;100.00;101603.25;4992523;28;20108;-74
2022/01/02 00:58:05;;;;;;;;;;;;;;;10.28;100.00;101598.88;4999096;28;19922;-72
2022/01/02 01:00:31;;;;;;;;;;;;;;;10.27;100.00;101587.50;4995836;28;19960;-74
2022/01/02 01:02:57;;;;;;;;;;;;;;;10.27;100.00;101584.03;5000945;28;19932;-72
2022/01/02 01:05:24;;;;;;;;;;;;;;;10.26;100.00;101584.94;4994499;28;20025;-73
2022/01/02 01:07:51;;;;;;;;;;;;;;;10.27;100.00;101589.28;5000872;28;20013;-73
2022/01/02 01:10:17;;;;;;;;;;;;;;;10.28;100.00;101589.22;4998514;28;20375;-72
2022/01/02 01:12:44;;;;;;;;;;;;;;;10.27;100.00;101584.03;5001412;28;20201;-72
2022/01/02 01:15:10;;;;;;;;;;;;;;;10.25;100.00;101586.72;4993736;28;20050;-73
2022/01/02 01:17:36;;;;;;;;;;;;;;;10.26;100.00;101575.25;5004205;28;20480;-73
2022/01/02 01:20:02;;;;;;;;;;;;;;;10.27;100.00;101561.22;4992988;28;20417;-73
2022/01/02 01:22:27;;;;;;;;;;;;;;;10.30;100.00;101550.63;5002428;28;19999;-74
2022/01/02 01:24:53;;;;;;;;;;;;;;;10.33;100.00;101552.28;4998652;28;20376;-74
2022/01/02 01:27:18;;;;;;;;;;;;;;;10.35;100.00;101553.97;4998585;28;19922;-75
2022/01/02 01:29:43;;;;;;;;;;;;;;;10.37;100.00;101551.28;4999519;28;20052;-75
2022/01/02 01:32:09;;;;;;;;;;;;;;;10.34;100.00;101556.63;4996926;28;19959;-75
2022/01/02 01:34:34;;;;;;;;;;;;;;;10.38;100.00;101547.78;5004089;28;20014;-75
2022/01/02 01:37:00;;;;;;;;;;;;;;;10.36;100.00;101544.31;5001345;28;20424;-75
2022/01/02 01:39:25;;;;;;;;;;;;;;;10.41;100.00;101549.44;5007484;28;19921;-73
2022/01/02 01:41:52;;;;;;;;;;;;;;;10.36;100.00;101546.94;5023157;28;20440;-73
2022/01/02 01:46:45;;;;;;;;;;;;;;;10.38;100.00;101525.88;5042979;28;19921;-72
2022/01/02 01:49:26;;;;;;;;;;;;;;;10.36;100.00;101534.63;5029612;28;20496;-72
2022/01/02 01:51:52;;;;;;;;;;;;;;;10.36;100.00;101537.25;5048006;28;19979;-75
2022/01/02 01:54:18;;;;;;;;;;;;;;;10.34;100.00;101523.34;5042382;28;20405;-75
2022/01/02 01:56:45;;;;;;;;;;;;;;;10.34;100.00;101523.34;5043927;28;19920;-75
2022/01/02 01:59:11;;;;;;;;;;;;;;;10.35;100.00;101509.31;5040894;28;19928;-72
2022/01/02 02:01:36;;;;;;;;;;;;;;;10.35;100.00;101496.19;5046831;28;19920;-76
2022/01/02 02:04:01;;;;;;;;;;;;;;;10.33;100.00;101511.13;5046470;28;20335;-73
2022/01/02 02:06:26;;;;;;;;;;;;;;;10.35;100.00;101508.44;5042749;28;19921;-72
2022/01/02 02:09:07;;;;;;;;;;;;;;;10.33;100.00;101508.50;5049945;28;20021;-72
2022/01/02 02:11:35;;;;;;;;;;;;;;;10.36;100.00;101502.28;5026675;28;20236;-73
2022/01/02 02:14:01;;;;;;;;;;;;;;;10.37;100.00;101498.75;5022857;28;19987;-73
2022/01/02 02:16:26;;;;;;;;;;;;;;;10.39;100.00;101480.31;5049836;28;19921;-73
2022/01/02 02:18:52;;;;;;;;;;;;;;;10.41;100.00;101484.63;5026475;28;19940;-73
2022/01/02 02:21:25;;;;;;;;;;;;;;;10.43;100.00;101477.53;5028863;28;20405;-74
2022/01/02 02:23:50;;;;;;;;;;;;;;;10.40;100.00;101475.03;5040024;28;19989;-74
2022/01/02 02:26:16;;;;;;;;;;;;;;;10.44;100.00;101458.22;5039102;28;20068;-74
2022/01/02 02:28:41;;;;;;;;;;;;;;;10.41;100.00;101457.47;5042710;28;19927;-77
2022/01/02 02:31:06;;;;;;;;;;;;;;;10.42;100.00;101452.16;5039741;28;20405;-78
2022/01/02 02:33:35;;;;;;;;;;;;;;;10.42;100.00;101441.66;5044725;28;20052;-79
2022/01/02 02:36:00;;;;;;;;;;;;;;;10.41;100.00;101436.47;5027365;28;20006;-76
2022/01/02 02:38:26;;;;;;;;;;;;;;;10.44;100.00;101437.22;5033425;28;19925;-70
2022/01/02 02:40:51;;;;;;;;;;;;;;;10.43;100.00;101443.38;5027894;28;19933;-78
2022/01/02 02:51:06;;;;;;;;;;;;;;;10.40;100.00;101419.00;5024649;28;19917;-71
2022/01/02 02:53:48;;;;;;;;;;;;;;;10.42;100.00;101415.38;5031545;28;20047;-71
2022/01/02 02:56:18;;;;;;;;;;;;;;;10.45;100.00;101414.44;5048672;28;19917;-71
2022/01/02 02:58:43;;;;;;;;;;;;;;;10.49;100.00;101401.13;5027801;28;19925;-72
2022/01/02 03:01:10;;;;;;;;;;;;;;;10.54;100.00;101400.97;5021765;28;19917;-70
2022/01/02 03:03:35;;;;;;;;;;;;;;;10.55;100.00;101396.53;5029613;28;19948;-72
2022/01/02 03:06:01;;;;;;;;;;;;;;;10.58;100.00;101391.19;5027615;28;20345;-73
2022/01/02 03:08:27;;;;;;;;;;;;;;;10.59;100.00;101385.84;5026895;28;19924;-72
2022/01/02 03:10:52;;;;;;;;;;;;;;;10.61;100.00;101381.41;5058837;28;19951;-73
2022/01/02 03:13:17;;;;;;;;;;;;;;;10.63;100.00;101390.09;5028289;28;20032;-71
2022/01/02 03:15:43;;;;;;;;;;;;;;;10.63;100.00;101397.97;5024351;28;20377;-72
2022/01/02 03:18:08;;;;;;;;;;;;;;;10.64;100.00;101399.69;5023600;28;19924;-71
2022/01/02 03:20:33;;;;;;;;;;;;;;;10.72;100.00;101403.78;5027238;28;19947;-71
2022/01/02 03:22:59;;;;;;;;;;;;;;;10.76;100.00;101405.41;5024924;28;19997;-71
2022/01/02 03:25:24;;;;;;;;;;;;;;;10.84;100.00;101398.06;5023395;28;19917;-71
2022/01/02 03:27:49;;;;;;;;;;;;;;;10.98;100.00;101390.50;5035295;28;19927;-72
2022/01/02 03:30:14;;;;;;;;;;;;;;;11.04;99.98;101386.78;5024493;28;19946;-72
2022/01/02 03:32:40;;;;;;;;;;;;;;;11.11;99.56;101377.69;5022884;28;20454;-72
2022/01/02 03:35:06;;;;;;;;;;;;;;;11.17;99.24;101368.72;5025312;28;20053;-69
2022/01/02 03:37:33;;;;;;;;;;;;;;;11.21;98.79;101370.31;5022885;28;19947;-70
2022/01/02 03:39:59;;;;;;;;;;;;;;;11.26;98.96;101370.13;5025670;28;19967;-72
2022/01/02 03:42:27;;;;;;;;;;;;;;;11.35;98.26;101353.09;5036961;28;20439;-69
2022/01/02 03:44:52;;;;;;;;;;;;;;;11.44;97.79;101335.13;5024398;28;20326;-74
2022/01/02 03:47:17;;;;;;;;;;;;;;;11.52;97.36;101320.81;5023992;28;19958;-73
2022/01/02 03:49:43;;;;;;;;;;;;;;;11.66;96.18;101323.69;5025592;28;20070;-70
2022/01/02 03:52:08;;;;;;;;;;;;;;;11.72;96.23;101326.06;5026623;28;19956;-70
2022/01/02 03:54:34;;;;;;;;;;;;;;;11.76;95.66;101318.88;5026848;28;20348;-71
2022/01/02 03:56:59;;;;;;;;;;;;;;;11.89;94.75;101295.47;5062400;28;19943;-73
2022/01/02 03:59:25;;;;;;;;;;;;;;;11.97;94.21;101303.03;5042213;28;19952;-72
2022/01/02 04:01:50;;;;;;;;;;;;;;;11.90;94.66;101310.38;5021193;28;20688;-70
2022/01/02 04:04:16;;;;;;;;;;;;;;;11.83;95.57;101316.84;5025762;28;19962;-70
2022/01/02 04:06:42;;;;;;;;;;;;;;;11.80;95.84;101303.81;5028499;28;19993;-70
2022/01/02 04:09:07;;;;;;;;;;;;;;;11.81;95.62;101316.88;5022754;28;19952;-75
2022/01/02 04:11:32;;;;;;;;;;;;;;;11.79;95.85;101296.81;5021141;28;20004;-76
2022/01/02 04:13:58;;;;;;;;;;;;;;;11.80;95.87;101294.09;5031134;28;19974;-75
2022/01/02 04:16:23;;;;;;;;;;;;;;;11.72;96.55;101291.84;5025847;28;20273;-75
2022/01/02 04:18:50;;;;;;;;;;;;;;;11.65;97.37;101300.91;5032195;28;20045;-72
2022/01/02 04:21:15;;;;;;;;;;;;;;;11.60;97.81;101292.38;5029007;28;19949;-77
2022/01/02 04:23:40;;;;;;;;;;;;;;;11.56;97.40;101288.16;5028968;28;19994;-78
2022/01/02 04:26:06;;;;;;;;;;;;;;;11.49;97.86;101278.84;5027702;28;19957;-73
2022/01/02 04:28:31;;;;;;;;;;;;;;;11.48;97.36;101274.50;5031291;28;19927;-72
2022/01/02 04:30:56;;;;;;;;;;;;;;;11.43;98.04;101282.59;5031881;28;20417;-73
2022/01/02 04:33:22;;;;;;;;;;;;;;;11.32;98.24;101272.50;5028220;28;20374;-74
2022/01/02 04:35:47;;;;;;;;;;;;;;;11.30;98.09;101274.34;5025062;28;19924;-76
2022/01/02 04:38:14;;;;;;;;;;;;;;;11.34;98.33;101270.69;5025908;28;19917;-75
2022/01/02 04:40:39;;;;;;;;;;;;;;;11.31;98.09;101267.34;5018122;28;19944;-76
2022/01/02 04:43:04;;;;;;;;;;;;;;;11.31;98.17;101246.28;5012510;28;20040;-77
2022/01/02 04:45:30;;;;;;;;;;;;;;;11.27;98.22;101249.03;4996047;28;20038;-77
2022/01/02 04:47:55;;;;;;;;;;;;;;;11.25;98.45;101244.78;5000804;28;19917;-77
2022/01/02 04:50:21;;;;;;;;;;;;;;;11.25;98.29;101235.09;4999071;28;19929;-78
2022/01/02 04:52:46;;;;;;;;;;;;;;;11.27;98.11;101233.25;5005605;28;20079;-72
2022/01/02 04:55:12;;;;;;;;;;;;;;;11.28;98.10;101232.34;5004890;28;20317;-74
2022/01/02 04:57:37;;;;;;;;;;;;;;;11.27;98.01;101228.00;5018782;28;19917;-72
2022/01/02 05:00:03;;;;;;;;;;;;;;;11.34;97.36;101211.97;5003443;28;19948;-71
2022/01/02 05:02:28;;;;;;;;;;;;;;;11.35;96.96;101213.69;5000904;28;19933;-72
2022/01/02 05:04:54;;;;;;;;;;;;;;;11.37;96.60;101211.81;5003493;28;20038;-71
2022/01/02 05:07:19;;;;;;;;;;;;;;;11.36;96.96;101202.19;5006316;28;19955;-71
2022/01/02 05:09:44;;;;;;;;;;;;;;;11.34;96.67;101196.19;5000070;28;19964;-72
2022/01/02 05:12:09;;;;;;;;;;;;;;;11.38;96.20;101187.22;5007049;28;20098;-70
2022/01/02 05:14:35;;;;;;;;;;;;;;;11.29;97.13;101191.97;5007751;28;19918;-76
2022/01/02 05:17:00;;;;;;;;;;;;;;;11.27;97.26;101196.44;5012693;28;20431;-74
2022/01/02 05:19:25;;;;;;;;;;;;;;;11.29;97.17;101184.06;5004506;28;19925;-76
2022/01/02 05:21:51;;;;;;;;;;;;;;;11.25;96.81;101187.75;5014536;28;19990;-77
2022/01/02 05:24:16;;;;;;;;;;;;;;;11.24;96.83;101182.56;5014133;28;20011;-76
2022/01/02 05:26:41;;;;;;;;;;;;;;;11.22;96.92;101166.88;4998588;28;19925;-77
2022/01/02 05:29:06;;;;;;;;;;;;;;;11.21;96.87;101164.28;5005209;28;20403;-77
2022/01/02 05:31:32;;;;;;;;;;;;;;;11.18;96.58;101162.66;5024694;28;19918;-74
2022/01/02 05:33:57;;;;;;;;;;;;;;;11.20;96.28;101152.94;5004937;28;19967;-74
2022/01/02 05:36:23;;;;;;;;;;;;;;;11.20;96.88;101145.03;5012443;28;19921;-73
2022/01/02 05:38:49;;;;;;;;;;;;;;;11.15;96.68;101139.13;5009383;28;20043;-73
2022/01/02 05:41:14;;;;;;;;;;;;;;;11.13;97.14;101140.97;5008180;28;19968;-74
2022/01/02 05:43:39;;;;;;;;;;;;;;;11.12;96.97;101131.38;5032746;28;20366;-74
2022/01/02 05:46:05;;;;;;;;;;;;;;;11.09;97.45;101150.75;5016265;28;19917;-74
2022/01/02 05:48:31;;;;;;;;;;;;;;;11.02;98.65;101143.22;5011882;28;19917;-74
2022/01/02 05:50:59;;;;;;;;;;;;;;;10.94;99.47;101144.41;5032598;28;20026;-71
2022/01/02 05:53:24;;;;;;;;;;;;;;;10.88;100.00;101134.16;5019142;28;19952;-73
2022/01/02 05:55:49;;;;;;;;;;;;;;;10.82;100.00;101131.78;5022019;28;19956;-73
2022/01/02 05:58:15;;;;;;;;;;;;;;;10.78;100.00;101133.69;5039554;28;19951;-74
2022/01/02 06:00:40;;;;;;;;;;;;;;;10.77;100.00;101123.25;5026223;28;20373;-74
2022/01/02 06:03:05;;;;;;;;;;;;;;;10.78;100.00;101117.09;5029416;28;20065;-74
2022/01/02 06:05:31;;;;;;;;;;;;;;;10.77;100.00;101116.22;5025837;28;20400;-70
2022/01/02 06:07:56;;;;;;;;;;;;;;;10.75;100.00;101110.16;5030199;28;20391;-70
2022/01/02 06:10:21;;;;;;;;;;;;;;;10.77;100.00;101108.31;5022029;28;19947;-71
2022/01/02 06:12:47;;;;;;;;;;;;;;;10.73;100.00;101103.28;5023217;28;20001;-71
2022/01/02 06:15:12;;;;;;;;;;;;;;;10.77;100.00;101110.13;5028757;28;19962;-72
2022/01/02 06:17:37;;;;;;;;;;;;;;;10.77;100.00;101104.88;5028275;28;20412;-71
2022/01/02 06:20:03;;;;;;;;;;;;;;;10.78;100.00;101109.19;5021840;28;19917;-71
2022/01/02 06:22:28;;;;;;;;;;;;;;;10.78;100.00;101094.28;5031572;28;19953;-72
2022/01/02 06:24:54;;;;;;;;;;;;;;;10.87;100.00;101084.25;5019575;28;20424;-70
2022/01/02 06:27:20;;;;;;;;;;;;;;;10.88;100.00;101083.34;5020952;28;19951;-72
2022/01/02 06:29:45;;;;;;;;;;;;;;;10.84;100.00;101072.13;5010228;28;20346;-71
2022/01/02 06:32:10;;;;;;;;;;;;;;;10.87;100.00;101065.88;5027329;28;20133;-71
2022/01/02 06:34:36;;;;;;;;;;;;;;;10.85;100.00;101063.31;5029394;28;20006;-76
2022/01/02 06:37:01;;;;;;;;;;;;;;;10.81;100.00;101061.75;5016015;28;19950;-74
2022/01/02 06:39:26;;;;;;;;;;;;;;;10.85;100.00;101063.31;5044222;28;19956;-73
2022/01/02 06:41:52;;;;;;;;;;;;;;;10.84;100.00;101053.72;5027765;28;20602;-76
2022/01/02 06:44:17;;;;;;;;;;;;;;;10.83;100.00;101047.63;5015380;28;19956;-77
2022/01/02 06:46:42;;;;;;;;;;;;;;;10.86;100.00;101041.38;5016911;28;20337;-69
2022/01/02 06:49:07;;;;;;;;;;;;;;;10.81;100.00;101024.94;5023751;28;20468;-70
2022/01/02 06:51:33;;;;;;;;;;;;;;;10.85;99.95;101021.25;5020746;28;20311;-71
2022/01/02 06:53:58;;;;;;;;;;;;;;;10.82;100.00;101021.41;5026325;28;19951;-75
2022/01/02 06:56:23;;;;;;;;;;;;;;;10.86;99.68;101009.84;5017984;28;20735;-75
2022/01/02 06:58:49;;;;;;;;;;;;;;;10.83;99.58;101012.59;5025382;28;19948;-75
2022/01/02 07:01:14;;;;;;;;;;;;;;;10.77;99.79;101010.25;5028523;28;20449;-73
2022/01/02 07:03:39;;;;;;;;;;;;;;;10.77;100.00;101010.25;5024558;28;19958;-72
2022/01/02 07:06:04;;;;;;;;;;;;;;;10.80;99.96;101010.97;5028775;28;19952;-73
2022/01/02 07:08:30;;;;;;;;;;;;;;;10.72;100.00;101013.09;5022787;28;19980;-76
2022/01/02 07:10:55;;;;;;;;;;;;;;;10.71;100.00;101015.75;5030778;28;19943;-76
2022/01/02 07:13:21;;;;;;;;;;;;;;;10.70;100.00;101012.28;5024561;28;19964;-75
2022/01/02 07:15:47;;;;;;;;;;;;;;;10.66;100.00;101013.34;5032097;28;19917;-76
2022/01/02 07:18:12;;;;;;;;;;;;;;;10.65;100.00;101014.25;5039628;28;19959;-75
2022/01/02 07:20:37;;;;;;;;;;;;;;;10.66;100.00;101010.72;5024258;28;20298;-75
2022/01/02 07:23:03;;;;;;;;;;;;;;;10.66;100.00;101001.06;5029625;28;19925;-75
2022/01/02 07:25:28;;;;;;;;;;;;;;;10.62;100.00;101011.78;5022724;28;20286;-74
2022/01/02 07:27:53;;;;;;;;;;;;;;;10.65;100.00;100999.38;5037585;28;19947;-75
2022/01/02 07:30:18;;;;;;;;;;;;;;;10.69;100.00;101009.75;5029382;28;20267;-78
2022/01/02 07:32:44;;;;;;;;;;;;;;;10.69;99.85;101000.06;5033252;28;19921;-77
2022/01/02 07:35:09;;;;;;;;;;;;;;;10.70;99.95;101007.03;5027421;28;19921;-71
2022/01/02 07:37:34;;;;;;;;;;;;;;;10.72;99.66;101005.19;5017280;28;20408;-71
2022/01/02 07:40:00;;;;;;;;;;;;;;;10.73;99.40;101006.03;5029792;28;19951;-73
2022/01/02 07:42:25;;;;;;;;;;;;;;;10.75;99.32;100996.31;5018022;28;19964;-79
2022/01/02 07:44:51;;;;;;;;;;;;;;;10.75;99.69;101004.19;5013172;28;19925;-74
2022/01/02 07:47:16;;;;;;;;;;;;;;;10.77;100.00;101010.25;5024191;28;20505;-73
2022/01/02 07:49:41;;;;;;;;;;;;;;;10.74;100.00;101005.13;5024751;28;19952;-74
2022/01/02 07:52:07;;;;;;;;;;;;;;;10.72;100.00;101009.59;5024655;28;19991;-71
2022/01/02 07:54:32;;;;;;;;;;;;;;;10.71;100.00;101013.13;5020492;28;20012;-70
2022/01/02 07:56:57;;;;;;;;;;;;;;;10.66;100.00;101008.09;5025128;28;19973;-74
2022/01/02 07:59:25;;;;;;;;;;;;;;;10.62;100.00;101001.28;5005312;28;20274;-73
2022/01/02 08:01:51;;;;;;;;;;;;;;;10.58;100.00;101008.44;5029927;28;20024;-73
2022/01/02 08:04:16;;;;;;;;;;;;;;;10.52;100.00;100999.06;5029260;28;19921;-74
2022/01/02 08:06:41;;;;;;;;;;;;;;;10.54;100.00;100991.09;5034826;28;19952;-76
2022/01/02 08:09:07;;;;;;;;;;;;;;;10.50;100.00;100981.63;5023541;28;20303;-75
2022/01/02 08:11:32;;;;;;;;;;;;;;;10.51;100.00;100991.22;5032551;28;20609;-76
2022/01/02 08:13:57;;;;;;;;;;;;;;;10.51;100.00;100978.09;5029392;28;19953;-75
2022/01/02 08:16:22;;;;;;;;;;;;;;;10.59;99.96;100977.75;5030187;28;20380;-76
2022/01/02 08:18:48;;;;;;;;;;;;;;;10.67;98.97;100975.63;5013070;28;19947;-76
2022/01/02 08:21:13;;;;;;;;;;;;;;;10.70;98.37;100956.25;5030586;28;19921;-75
2022/01/02 08:23:38;;;;;;;;;;;;;;;10.75;97.57;100955.09;5031549;28;20468;-75
2022/01/02 08:26:04;;;;;;;;;;;;;;;10.80;97.25;100961.03;5024379;28;19951;-70
2022/01/02 08:28:29;;;;;;;;;;;;;;;10.87;97.13;100955.47;5033902;28;19951;-71
2022/01/02 08:30:54;;;;;;;;;;;;;;;10.94;96.15;100956.91;5027844;28;19943;-72
2022/01/02 08:33:20;;;;;;;;;;;;;;;11.01;96.23;100960.09;5012369;28;19959;-72
2022/01/02 08:35:45;;;;;;;;;;;;;;;11.01;96.23;100971.47;5026444;28;20062;-70
2022/01/02 08:38:12;;;;;;;;;;;;;;;11.00;96.10;100969.75;5026149;28;19928;-72
2022/01/02 08:40:38;;;;;;;;;;;;;;;11.03;95.94;100961.72;5029933;28;19955;-71
2022/01/02 08:43:03;;;;;;;;;;;;;;;11.03;96.12;100951.22;5024747;28;19925;-73
2022/01/02 08:45:28;;;;;;;;;;;;;;;11.10;95.66;100963.13;5015349;28;20000;-76
2022/01/02 08:47:54;;;;;;;;;;;;;;;11.09;96.21;100950.91;5030251;28;19985;-75
2022/01/02 08:50:19;;;;;;;;;;;;;;;11.14;95.37;100948.06;5027477;28;19917;-76
2022/01/02 08:52:45;;;;;;;;;;;;;;;11.16;95.96;100964.63;5027100;28;19951;-71
2022/01/02 08:55:10;;;;;;;;;;;;;;;11.20;95.58;100976.72;5019756;28;19958;-71
2022/01/02 08:57:35;;;;;;;;;;;;;;;11.17;95.77;100974.22;5024123;28;19960;-71
2022/01/02 09:00:01;;;;;;;;;;;;;;;11.22;95.35;100964.34;5023754;28;19955;-70
2022/01/02 09:02:26;;;;;;;;;;;;;;;11.20;95.36;100963.56;5019908;28;20013;-75
2022/01/02 09:04:52;;;;;;;;;;;;;;;11.16;95.63;100948.84;5023281;28;20408;-75
2022/01/02 09:07:17;;;;;;;;;;;;;;;11.17;95.56;100950.56;5021879;28;19917;-74
2022/01/02 09:09:42;;;;;;;;;;;;;;;11.19;94.68;100945.25;5020056;28;20009;-76
2022/01/02 09:12:08;;;;;;;;;;;;;;;11.14;94.77;100935.78;5030778;28;20300;-75
2022/01/02 09:14:35;;;;;;;;;;;;;;;11.14;94.60;100940.19;5023608;28;19947;-76
2022/01/02 09:17:00;;;;;;;;;;;;;;;11.14;94.58;100953.31;5005623;28;20357;-72
2022/01/02 09:19:25;;;;;;;;;;;;;;;11.21;94.10;100959.16;5012654;28;19940;-74
2022/01/02 09:21:50;;;;;;;;;;;;;;;11.20;93.72;100957.44;5028447;28;20473;-71
2022/01/02 09:24:16;;;;;;;;;;;;;;;11.22;93.88;100969.63;5038918;28;19961;-71
2022/01/02 09:26:41;;;;;;;;;;;;;;;11.23;93.55;100947.66;5015127;28;19964;-76
2022/01/02 09:29:06;;;;;;;;;;;;;;;11.18;94.22;100960.16;5025922;28;19928;-75
2022/01/02 09:31:32;;;;;;;;;;;;;;;11.22;93.76;100963.47;5024188;28;19994;-78
2022/01/02 09:33:57;;;;;;;;;;;;;;;11.22;93.18;100966.13;5022721;28;19957;-71
2022/01/02 09:36:22;;;;;;;;;;;;;;;11.17;93.64;100962.88;5020460;28;19966;-73
2022/01/02 09:38:48;;;;;;;;;;;;;;;11.10;93.86;100951.78;5029047;28;19956;-73
2022/01/02 09:41:14;;;;;;;;;;;;;;;11.16;93.69;100954.09;5026274;28;19959;-71
2022/01/02 09:43:39;;;;;;;;;;;;;;;11.29;93.23;100949.97;5030600;28;19921;-79
2022/01/02 09:46:04;;;;;;;;;;;;;;;11.28;93.04;100960.59;5026434;28;20378;-78
2022/01/02 09:48:30;;;;;;;;;;;;;;;11.21;92.80;100957.38;5026794;28;20578;-78
2022/01/02 09:51:11;;;;;;;;;;;;;;;11.20;92.70;100963.56;5012567;28;19986;-72
2022/01/02 09:53:36;;;;;;;;;;;;;;;11.21;93.10;100962.66;5020391;28;20473;-72
2022/01/02 09:56:01;;;;;;;;;;;;;;;11.08;93.15;100972.03;5024758;28;19925;-73
2022/01/02 09:58:27;;;;;;;;;;;;;;;11.05;93.71;100969.53;5025271;28;19992;-72
2022/01/02 10:00:53;;;;;;;;;;;;;;;11.01;93.72;100963.56;5029222;28;20290;-72
2022/01/02 10:03:19;;;;;;;;;;;;;;;10.98;93.37;100961.94;5019152;28;20008;-71
2022/01/02 10:05:59;;;;;;;;;;;;;;;11.01;93.34;100968.00;5026540;28;19932;-73
2022/01/02 10:08:26;;;;;;;;;;;;;;;11.02;93.34;100967.91;5037470;28;19917;-73
2022/01/02 10:11:08;;;;;;;;;;;;;;;11.05;93.01;100966.91;5024508;28;19925;-72
2022/01/02 10:13:49;;;;;;;;;;;;;;;10.95;92.75;100959.47;5021502;28;19918;-72
2022/01/02 10:19:29;;;;;;;;;;;;;;;10.84;93.52;100961.72;5027490;28;19917;-73
2022/01/02 10:22:09;;;;;;;;;;;;;;;10.80;93.35;100968.06;5020498;28;19917;-73
2022/01/02 10:27:17;;;;;;;;;;;;;;;10.84;93.90;100953.84;5024243;28;20580;-72
2022/01/02 10:29:42;;;;;;;;;;;;;;;10.88;94.14;100954.56;5030522;28;19929;-72
2022/01/02 10:32:23;;;;;;;;;;;;;;;10.85;94.13;100954.72;5020307;28;20286;-72
2022/01/02 10:34:49;;;;;;;;;;;;;;;10.81;93.52;100951.34;5015323;28;20603;-71
2022/01/02 10:37:30;;;;;;;;;;;;;;;10.83;93.67;100965.28;5027672;28;20004;-79
2022/01/02 10:39:55;;;;;;;;;;;;;;;10.71;94.22;100971.09;5022155;28;19924;-78
2022/01/02 10:42:21;;;;;;;;;;;;;;;10.69;94.15;100963.28;5033179;28;19933;-77
2022/01/02 10:44:47;;;;;;;;;;;;;;;10.67;94.61;100966.00;5015613;28;19917;-79
2022/01/02 10:47:15;;;;;;;;;;;;;;;10.71;94.94;100976.34;5014082;28;20008;-77
2022/01/02 10:49:55;;;;;;;;;;;;;;;10.66;95.44;100971.31;5016237;28;19918;-78
2022/01/02 10:52:20;;;;;;;;;;;;;;;10.71;95.09;100971.97;5019798;28;19936;-79
2022/01/02 10:54:46;;;;;;;;;;;;;;;10.66;95.47;100966.03;5014486;28;19917;-79
2022/01/02 10:57:12;;;;;;;;;;;;;;;10.72;95.23;100967.53;5022604;28;19925;-71
2022/01/02 10:59:38;;;;;;;;;;;;;;;10.76;94.88;100974.38;5025769;28;19921;-71
2022/01/02 11:02:03;;;;;;;;;;;;;;;10.75;94.88;100959.53;5027625;28;20305;-72
2022/01/02 11:04:30;;;;;;;;;;;;;;;10.77;94.85;100970.81;5025312;28;19928;-70
2022/01/02 11:06:58;;;;;;;;;;;;;;;10.79;94.59;100961.94;5031244;28;19924;-71
2022/01/02 11:09:23;;;;;;;;;;;;;;;10.81;94.84;100977.63;5026510;28;20028;-72
2022/01/02 11:11:49;;;;;;;;;;;;;;;10.83;94.27;100974.03;5030074;28;19917;-72
2022/01/02 11:14:14;;;;;;;;;;;;;;;10.77;94.69;100981.34;5021079;28;19917;-73
2022/01/02 11:16:40;;;;;;;;;;;;;;;10.77;94.84;100978.72;5022244;28;20463;-78
2022/01/02 11:19:05;;;;;;;;;;;;;;;10.71;95.20;100974.59;5026181;28;19921;-78
2022/01/02 11:21:33;;;;;;;;;;;;;;;10.72;95.04;100983.31;5043535;28;19945;-77
2022/01/02 11:24:18;;;;;;;;;;;;;;;10.78;94.97;100977.78;5030910;28;19921;-77
2022/01/02 11:26:49;;;;;;;;;;;;;;;10.77;94.91;100987.44;5017323;28;19921;-70
2022/01/02 11:29:15;;;;;;;;;;;;;;;10.81;94.42;100988.16;5029994;28;19959;-72
2022/01/02 11:31:43;;;;;;;;;;;;;;;10.87;94.24;100987.00;5030894;28;19956;-71
2022/01/02 11:34:24;;;;;;;;;;;;;;;10.87;93.76;100984.38;5016702;28;19925;-71
2022/01/02 11:36:49;;;;;;;;;;;;;;;10.83;93.75;100997.69;5022145;28;19966;-70
2022/01/02 11:39:15;;;;;;;;;;;;;;;10.83;93.31;100992.44;5026251;28;19971;-71
2022/01/02 11:41:41;;;;;;;;;;;;;;;10.81;93.46;100999.53;5038846;28;19987;-72
2022/01/02 11:44:22;;;;;;;;;;;;;;;10.78;93.72;100996.19;5017349;28;20330;-71
2022/01/02 11:47:02;;;;;;;;;;;;;;;10.80;93.72;100997.81;5027371;28;19924;-73
2022/01/02 11:49:44;;;;;;;;;;;;;;;10.74;93.64;101013.00;5027162;28;20333;-72
2022/01/02 11:52:09;;;;;;;;;;;;;;;10.73;93.97;101000.78;5025686;28;19920;-71
2022/01/02 11:54:50;;;;;;;;;;;;;;;10.61;94.74;101016.19;5024867;28;20459;-72
2022/01/02 11:57:15;;;;;;;;;;;;;;;10.65;94.59;101009.88;5023454;28;19917;-70
2022/01/02 12:02:21;;;;;;;;;;;;;;;10.73;93.98;101011.28;5023731;28;20334;-72
2022/01/02 12:05:03;;;;;;;;;;;;;;;10.70;94.17;101014.91;5023530;28;19921;-74
2022/01/02 12:10:28;;;;;;;;;;;;;;;10.68;93.79;101019.38;5022484;28;19991;-75
2022/01/02 12:13:10;;;;;;;;;;;;;;;10.65;93.73;101015.13;5030213;28;20378;-76
2022/01/02 12:15:51;;;;;;;;;;;;;;;10.52;94.42;101013.97;5017391;28;19929;-75
2022/01/02 12:21:00;;;;;;;;;;;;;;;10.40;94.39;101004.84;5027292;28;20283;-76
2022/01/02 12:23:42;;;;;;;;;;;;;;;10.39;94.38;101012.78;5023604;28;19925;-75
2022/01/02 12:26:23;;;;;;;;;;;;;;;10.38;94.40;101011.06;5026353;28;19917;-77
2022/01/02 12:28:56;;;;;;;;;;;;;;;10.41;94.17;101011.81;5062094;28;20406;-77
2022/01/02 12:31:22;;;;;;;;;;;;;;;10.40;94.32;101006.59;5038683;28;19965;-78
2022/01/02 12:33:47;;;;;;;;;;;;;;;10.47;93.80;101010.69;5020878;28;19953;-78
2022/01/02 12:36:12;;;;;;;;;;;;;;;10.45;93.58;101007.28;5016234;28;20268;-71
2022/01/02 12:38:53;;;;;;;;;;;;;;;10.52;93.46;101003.44;5021555;28;19917;-78
2022/01/02 12:41:20;;;;;;;;;;;;;;;10.48;93.35;101010.63;5012042;28;19924;-78
2022/01/02 12:44:00;;;;;;;;;;;;;;;10.50;93.40;101026.31;5019617;28;20741;-77
2022/01/02 12:46:41;;;;;;;;;;;;;;;10.46;92.90;101016.88;5029242;28;19928;-77
2022/01/02 12:49:22;;;;;;;;;;;;;;;10.43;93.42;101022.25;5023008;28;19921;-77
2022/01/02 12:51:49;;;;;;;;;;;;;;;10.39;93.26;101028.53;5028806;28;19924;-72
2022/01/02 12:54:15;;;;;;;;;;;;;;;10.36;92.77;101030.34;5019195;28;19925;-72
2022/01/02 12:56:42;;;;;;;;;;;;;;;10.38;92.25;101024.19;5029432;28;19921;-72